メインページ
METAR-TAF:

METAR-TAF

空港 :

富山空港

富山, 日本

緯度: 36-39N, 経度: 137-11E, 海抜: 24m

現時点の気象観測

当レポートは57分前の11:00(UTC)に作成
の風 4kt
気温 15°C
湿度 72%
気圧 1021 hPa
視程10km以上
高度2000ftの雲はほとんどない
高度2500ftの雲は散在している
千切れ雲あり

METAR: RJNT 201100Z 36004KT 9999 FEW020 SCT025 BKN/// 15/10 Q1021

時間: 20:57 (11:57 UTC)

予報

当レポートは52分前の11:05(UTC)に作成
予報は20日の 12時(UTC)から 21日の 18時(UTC)まで有効
南/南西の風 4kt
視程10km以上
高度2000ftの雲はほとんどない
21日の 00時(UTC)から 21日の 03時(UTC)まで徐々に
の風 10kt
21日の 09時(UTC)から 21日の 12時(UTC)まで徐々に
南/南西の風 4kt

TAF: RJNT 201105Z 2012/2118 20004KT 9999 FEW020 BECMG 2100/2103 35010KT BECMG 2109/2112 20004KT

4,000以上の空港の気象観測と天気予報(METAR報とTAF報)

利用可能な観測所は地図上に黄色い丸と赤い丸で示す。

丸の上にカーソルを重ねると観測所名を参照できる。

次にクリックすると気象観測と天気予報を参照できる。

マップの切り替え:黒色「×」印の緑ボタンをクリックして拡大、「-」印の緑ボタンをクリックして縮小、緑色の三角印をクリックして隣りの地図に切り替え


METAR-TAF: